KBFD/BFD METAR and TAF weather

Enter ICAO airport designator
Station Type Date Time Source
KBFD METAR 2021/08/01 15:53 UTC NOAA

KBFD 011553Z AUTO 23009G14KT 10SM FEW031 BKN060 BKN100 22/13 A2987 RMK AO2 SLP106 T02220133


Station Type Date Time Source
KBFD Decoded METAR 2021/08/01 15:53 UTC NOAA

BRADFORD REGIONAL AIRPORT, PA, United States (KBFD) 41-48N 078-38W 647M
Aug 01, 2021 - 11:53 AM EDT / 2021.08.01 1553 UTC
Wind: from the SW (230 degrees) at 10 MPH (9 KT) gusting to 16 MPH (14 KT):0
Visibility: 10 mile(s):0
Sky conditions: mostly cloudy
Temperature: 72.0 F (22.2 C)
Dew Point: 55.9 F (13.3 C)
Relative Humidity: 57%
Pressure (altimeter): 29.87 in. Hg (1011 hPa)
ob: KBFD 011553Z AUTO 23009G14KT 10SM FEW031 BKN060 BKN100 22/13 A2987 RMK AO2 SLP106 T02220133
cycle: 16

Station Type Date Time Source
KBFD TAF 2021/08/01 15:06 UTC NOAA

TAF
AMD KBFD 011504Z 0115/0212 23007KT P6SM SCT030 BKN100
FM011630 28007KT P6SM -SHRA VCTS BKN040CB
FM012200 29007KT P6SM BKN035
FM020400 32002KT 5SM BR OVC015
FM020600 33003KT 5SM BR OVC007

Example: see airport list